sensor_id;sensor_type;location;lat;lon;timestamp;P1;durP1;ratioP1;P2;durP2;ratioP2
59147;SDS011;44930;52.878;6.168;2023-01-29T00:02:05;23.48;;;11.93;;
59147;SDS011;44930;52.878;6.168;2023-01-29T00:04:31;16.75;;;11.23;;
59147;SDS011;44930;52.878;6.168;2023-01-29T00:06:56;16.75;;;11.70;;
59147;SDS011;44930;52.878;6.168;2023-01-29T00:09:22;18.45;;;12.60;;
59147;SDS011;44930;52.878;6.168;2023-01-29T00:11:48;20.60;;;12.23;;
59147;SDS011;44930;52.878;6.168;2023-01-29T00:14:13;22.40;;;12.48;;
59147;SDS011;44930;52.878;6.168;2023-01-29T00:16:39;21.80;;;12.05;;
59147;SDS011;44930;52.878;6.168;2023-01-29T00:19:05;23.50;;;12.35;;
59147;SDS011;44930;52.878;6.168;2023-01-29T00:21:31;19.52;;;11.65;;
59147;SDS011;44930;52.878;6.168;2023-01-29T00:23:57;23.08;;;12.55;;
59147;SDS011;44930;52.878;6.168;2023-01-29T00:26:24;18.00;;;11.82;;
59147;SDS011;44930;52.878;6.168;2023-01-29T00:28:50;19.83;;;12.75;;
59147;SDS011;44930;52.878;6.168;2023-01-29T00:31:17;18.35;;;12.32;;
59147;SDS011;44930;52.878;6.168;2023-01-29T00:33:44;19.35;;;12.10;;
59147;SDS011;44930;52.878;6.168;2023-01-29T00:36:10;19.88;;;11.98;;
59147;SDS011;44930;52.878;6.168;2023-01-29T00:38:37;19.95;;;12.10;;
59147;SDS011;44930;52.878;6.168;2023-01-29T00:41:04;20.75;;;12.65;;
59147;SDS011;44930;52.878;6.168;2023-01-29T00:43:58;20.27;;;12.68;;
59147;SDS011;44930;52.878;6.168;2023-01-29T00:46:43;20.63;;;11.70;;
59147;SDS011;44930;52.878;6.168;2023-01-29T00:49:09;18.70;;;11.88;;
59147;SDS011;44930;52.878;6.168;2023-01-29T00:51:35;22.33;;;13.30;;
59147;SDS011;44930;52.878;6.168;2023-01-29T00:54:02;15.93;;;11.20;;
59147;SDS011;44930;52.878;6.168;2023-01-29T00:56:30;17.90;;;11.45;;
59147;SDS011;44930;52.878;6.168;2023-01-29T00:58:57;18.30;;;11.90;;
59147;SDS011;44930;52.878;6.168;2023-01-29T01:01:23;19.02;;;11.70;;
59147;SDS011;44930;52.878;6.168;2023-01-29T01:04:07;20.10;;;11.93;;
59147;SDS011;44930;52.878;6.168;2023-01-29T01:06:38;22.27;;;12.70;;
59147;SDS011;44930;52.878;6.168;2023-01-29T01:09:05;20.52;;;11.55;;
59147;SDS011;44930;52.878;6.168;2023-01-29T01:11:50;15.65;;;10.57;;
59147;SDS011;44930;52.878;6.168;2023-01-29T01:14:16;16.52;;;10.85;;
59147;SDS011;44930;52.878;6.168;2023-01-29T01:16:45;20.52;;;11.15;;
59147;SDS011;44930;52.878;6.168;2023-01-29T01:19:11;15.95;;;10.80;;
59147;SDS011;44930;52.878;6.168;2023-01-29T01:21:38;18.17;;;10.93;;
59147;SDS011;44930;52.878;6.168;2023-01-29T01:24:03;15.98;;;10.75;;
59147;SDS011;44930;52.878;6.168;2023-01-29T01:26:30;19.23;;;10.80;;
59147;SDS011;44930;52.878;6.168;2023-01-29T01:28:56;14.85;;;9.80;;
59147;SDS011;44930;52.878;6.168;2023-01-29T01:31:22;17.67;;;10.50;;
59147;SDS011;44930;52.878;6.168;2023-01-29T01:33:48;20.02;;;10.60;;
59147;SDS011;44930;52.878;6.168;2023-01-29T01:36:15;16.65;;;11.10;;
59147;SDS011;44930;52.878;6.168;2023-01-29T01:38:41;13.95;;;9.73;;
59147;SDS011;44930;52.878;6.168;2023-01-29T01:41:16;14.75;;;9.77;;
59147;SDS011;44930;52.878;6.168;2023-01-29T01:43:47;16.70;;;10.05;;
59147;SDS011;44930;52.878;6.168;2023-01-29T01:46:17;17.00;;;10.30;;
59147;SDS011;44930;52.878;6.168;2023-01-29T01:48:43;16.38;;;9.65;;
59147;SDS011;44930;52.878;6.168;2023-01-29T01:51:11;15.20;;;9.02;;
59147;SDS011;44930;52.878;6.168;2023-01-29T01:53:39;13.23;;;9.43;;
59147;SDS011;44930;52.878;6.168;2023-01-29T01:56:13;14.05;;;8.80;;
59147;SDS011;44930;52.878;6.168;2023-01-29T01:58:42;12.95;;;8.93;;
59147;SDS011;44930;52.878;6.168;2023-01-29T02:01:14;17.25;;;9.75;;
59147;SDS011;44930;52.878;6.168;2023-01-29T02:03:42;19.27;;;9.98;;
59147;SDS011;44930;52.878;6.168;2023-01-29T02:06:38;14.85;;;8.80;;
59147;SDS011;44930;52.878;6.168;2023-01-29T02:09:29;16.15;;;9.50;;
59147;SDS011;44930;52.878;6.168;2023-01-29T02:16:51;13.80;;;8.60;;
59147;SDS011;44930;52.878;6.168;2023-01-29T02:19:26;14.10;;;9.98;;
59147;SDS011;44930;52.878;6.168;2023-01-29T02:24:58;14.90;;;10.02;;
59147;SDS011;44930;52.878;6.168;2023-01-29T02:28:04;17.30;;;9.60;;
59147;SDS011;44930;52.878;6.168;2023-01-29T02:31:05;16.00;;;9.73;;
59147;SDS011;44930;52.878;6.168;2023-01-29T02:33:39;18.02;;;11.13;;
59147;SDS011;44930;52.878;6.168;2023-01-29T02:36:11;14.88;;;9.77;;
59147;SDS011;44930;52.878;6.168;2023-01-29T02:38:45;17.27;;;10.63;;
59147;SDS011;44930;52.878;6.168;2023-01-29T02:49:46;15.52;;;11.25;;
59147;SDS011;44930;52.878;6.168;2023-01-29T02:54:49;15.80;;;11.23;;
59147;SDS011;44930;52.878;6.168;2023-01-29T02:57:35;15.65;;;11.07;;
59147;SDS011;44930;52.878;6.168;2023-01-29T03:00:13;17.02;;;10.48;;
59147;SDS011;44930;52.878;6.168;2023-01-29T03:02:46;16.42;;;10.43;;
59147;SDS011;44930;52.878;6.168;2023-01-29T03:05:17;15.95;;;11.65;;
59147;SDS011;44930;52.878;6.168;2023-01-29T03:07:52;17.70;;;11.52;;
59147;SDS011;44930;52.878;6.168;2023-01-29T03:10:25;18.30;;;11.82;;
59147;SDS011;44930;52.878;6.168;2023-01-29T03:13:15;16.13;;;10.73;;
59147;SDS011;44930;52.878;6.168;2023-01-29T03:15:44;16.52;;;10.63;;
59147;SDS011;44930;52.878;6.168;2023-01-29T03:18:18;17.52;;;11.48;;
59147;SDS011;44930;52.878;6.168;2023-01-29T03:20:50;15.77;;;10.20;;
59147;SDS011;44930;52.878;6.168;2023-01-29T03:23:30;16.20;;;11.05;;
59147;SDS011;44930;52.878;6.168;2023-01-29T03:26:18;18.65;;;12.02;;
59147;SDS011;44930;52.878;6.168;2023-01-29T03:29:04;18.17;;;11.77;;
59147;SDS011;44930;52.878;6.168;2023-01-29T03:31:51;16.88;;;11.65;;
59147;SDS011;44930;52.878;6.168;2023-01-29T03:34:48;22.10;;;13.18;;
59147;SDS011;44930;52.878;6.168;2023-01-29T03:37:26;23.38;;;12.65;;
59147;SDS011;44930;52.878;6.168;2023-01-29T03:39:58;17.75;;;11.60;;
59147;SDS011;44930;52.878;6.168;2023-01-29T03:42:27;23.80;;;13.80;;
59147;SDS011;44930;52.878;6.168;2023-01-29T03:48:05;20.42;;;12.65;;
59147;SDS011;44930;52.878;6.168;2023-01-29T03:59:10;24.27;;;14.63;;
59147;SDS011;44930;52.878;6.168;2023-01-29T04:01:41;21.15;;;14.15;;
59147;SDS011;44930;52.878;6.168;2023-01-29T04:06:55;21.05;;;14.48;;
59147;SDS011;44930;52.878;6.168;2023-01-29T04:09:29;23.65;;;13.82;;
59147;SDS011;44930;52.878;6.168;2023-01-29T04:12:01;23.23;;;15.20;;
59147;SDS011;44930;52.878;6.168;2023-01-29T04:14:33;24.55;;;14.95;;
59147;SDS011;44930;52.878;6.168;2023-01-29T04:17:00;22.02;;;15.07;;
59147;SDS011;44930;52.878;6.168;2023-01-29T04:19:35;24.52;;;15.77;;
59147;SDS011;44930;52.878;6.168;2023-01-29T04:22:02;25.25;;;16.13;;
59147;SDS011;44930;52.878;6.168;2023-01-29T04:24:29;26.02;;;15.50;;
59147;SDS011;44930;52.878;6.168;2023-01-29T04:27:05;22.20;;;15.70;;
59147;SDS011;44930;52.878;6.168;2023-01-29T04:29:57;25.92;;;14.48;;
59147;SDS011;44930;52.878;6.168;2023-01-29T04:32:46;21.80;;;15.18;;
59147;SDS011;44930;52.878;6.168;2023-01-29T04:41:04;24.20;;;16.73;;
59147;SDS011;44930;52.878;6.168;2023-01-29T04:43:44;22.35;;;14.77;;
59147;SDS011;44930;52.878;6.168;2023-01-29T04:46:18;28.13;;;15.80;;
59147;SDS011;44930;52.878;6.168;2023-01-29T04:51:21;21.85;;;15.02;;
59147;SDS011;44930;52.878;6.168;2023-01-29T04:59:20;22.38;;;14.30;;
59147;SDS011;44930;52.878;6.168;2023-01-29T05:01:53;25.13;;;16.92;;
59147;SDS011;44930;52.878;6.168;2023-01-29T05:04:18;21.05;;;14.32;;
59147;SDS011;44930;52.878;6.168;2023-01-29T05:06:45;21.90;;;14.63;;
59147;SDS011;44930;52.878;6.168;2023-01-29T05:09:13;20.77;;;14.77;;
59147;SDS011;44930;52.878;6.168;2023-01-29T05:11:41;22.35;;;16.25;;
59147;SDS011;44930;52.878;6.168;2023-01-29T05:14:09;27.15;;;16.15;;
59147;SDS011;44930;52.878;6.168;2023-01-29T05:16:40;20.88;;;15.40;;
59147;SDS011;44930;52.878;6.168;2023-01-29T05:19:09;24.63;;;15.40;;
59147;SDS011;44930;52.878;6.168;2023-01-29T05:21:37;23.95;;;17.05;;
59147;SDS011;44930;52.878;6.168;2023-01-29T05:24:05;22.50;;;16.83;;
59147;SDS011;44930;52.878;6.168;2023-01-29T05:26:39;24.27;;;16.55;;
59147;SDS011;44930;52.878;6.168;2023-01-29T05:29:25;22.02;;;16.52;;
59147;SDS011;44930;52.878;6.168;2023-01-29T05:31:50;25.52;;;16.67;;
59147;SDS011;44930;52.878;6.168;2023-01-29T05:34:16;22.08;;;17.45;;
59147;SDS011;44930;52.878;6.168;2023-01-29T05:36:42;25.70;;;17.65;;
59147;SDS011;44930;52.878;6.168;2023-01-29T05:39:07;24.05;;;16.65;;
59147;SDS011;44930;52.878;6.168;2023-01-29T05:41:33;23.98;;;17.92;;
59147;SDS011;44930;52.878;6.168;2023-01-29T05:43:58;23.20;;;16.10;;
59147;SDS011;44930;52.878;6.168;2023-01-29T05:46:24;24.45;;;16.88;;
59147;SDS011;44930;52.878;6.168;2023-01-29T05:48:51;22.20;;;15.02;;
59147;SDS011;44930;52.878;6.168;2023-01-29T05:51:17;23.50;;;17.27;;
59147;SDS011;44930;52.878;6.168;2023-01-29T05:53:42;24.17;;;17.73;;
59147;SDS011;44930;52.878;6.168;2023-01-29T05:56:08;24.15;;;16.90;;
59147;SDS011;44930;52.878;6.168;2023-01-29T05:58:33;21.80;;;16.90;;
59147;SDS011;44930;52.878;6.168;2023-01-29T06:01:07;25.95;;;17.58;;
59147;SDS011;44930;52.878;6.168;2023-01-29T06:03:36;25.23;;;17.10;;
59147;SDS011;44930;52.878;6.168;2023-01-29T06:06:02;27.00;;;17.80;;
59147;SDS011;44930;52.878;6.168;2023-01-29T06:08:28;24.88;;;16.98;;
59147;SDS011;44930;52.878;6.168;2023-01-29T06:10:53;22.80;;;16.23;;
59147;SDS011;44930;52.878;6.168;2023-01-29T06:13:19;26.52;;;19.13;;
59147;SDS011;44930;52.878;6.168;2023-01-29T06:15:44;26.70;;;19.02;;
59147;SDS011;44930;52.878;6.168;2023-01-29T06:18:10;22.90;;;17.88;;
59147;SDS011;44930;52.878;6.168;2023-01-29T06:20:36;22.58;;;16.70;;
59147;SDS011;44930;52.878;6.168;2023-01-29T06:23:01;27.80;;;18.60;;
59147;SDS011;44930;52.878;6.168;2023-01-29T06:25:27;25.75;;;20.02;;
59147;SDS011;44930;52.878;6.168;2023-01-29T06:27:55;29.48;;;20.77;;
59147;SDS011;44930;52.878;6.168;2023-01-29T06:30:20;30.08;;;20.80;;
59147;SDS011;44930;52.878;6.168;2023-01-29T06:32:46;30.27;;;20.90;;
59147;SDS011;44930;52.878;6.168;2023-01-29T06:35:12;26.25;;;19.27;;
59147;SDS011;44930;52.878;6.168;2023-01-29T06:37:38;29.25;;;21.15;;
59147;SDS011;44930;52.878;6.168;2023-01-29T06:40:03;27.95;;;19.38;;
59147;SDS011;44930;52.878;6.168;2023-01-29T06:42:29;24.15;;;18.20;;
59147;SDS011;44930;52.878;6.168;2023-01-29T06:44:55;28.42;;;19.70;;
59147;SDS011;44930;52.878;6.168;2023-01-29T06:47:21;26.85;;;20.98;;
59147;SDS011;44930;52.878;6.168;2023-01-29T06:49:47;26.48;;;19.70;;
59147;SDS011;44930;52.878;6.168;2023-01-29T06:52:13;30.20;;;22.77;;
59147;SDS011;44930;52.878;6.168;2023-01-29T06:54:38;29.50;;;21.15;;
59147;SDS011;44930;52.878;6.168;2023-01-29T06:57:04;29.50;;;22.50;;
59147;SDS011;44930;52.878;6.168;2023-01-29T06:59:29;27.67;;;22.30;;
59147;SDS011;44930;52.878;6.168;2023-01-29T07:01:55;29.70;;;21.95;;
59147;SDS011;44930;52.878;6.168;2023-01-29T07:04:21;27.38;;;21.35;;
59147;SDS011;44930;52.878;6.168;2023-01-29T07:06:46;29.95;;;21.38;;
59147;SDS011;44930;52.878;6.168;2023-01-29T07:09:12;30.58;;;22.58;;
59147;SDS011;44930;52.878;6.168;2023-01-29T07:11:38;30.92;;;22.13;;
59147;SDS011;44930;52.878;6.168;2023-01-29T07:14:04;32.13;;;23.13;;
59147;SDS011;44930;52.878;6.168;2023-01-29T07:16:30;34.38;;;21.83;;
59147;SDS011;44930;52.878;6.168;2023-01-29T07:18:56;29.77;;;22.85;;
59147;SDS011;44930;52.878;6.168;2023-01-29T07:21:22;29.02;;;21.88;;
59147;SDS011;44930;52.878;6.168;2023-01-29T07:23:47;30.85;;;21.98;;
59147;SDS011;44930;52.878;6.168;2023-01-29T07:26:13;29.30;;;22.65;;
59147;SDS011;44930;52.878;6.168;2023-01-29T07:28:39;30.27;;;21.50;;
59147;SDS011;44930;52.878;6.168;2023-01-29T07:31:05;32.33;;;21.05;;
59147;SDS011;44930;52.878;6.168;2023-01-29T07:33:32;33.40;;;21.83;;
59147;SDS011;44930;52.878;6.168;2023-01-29T07:35:58;30.02;;;21.88;;
59147;SDS011;44930;52.878;6.168;2023-01-29T07:38:23;31.40;;;21.50;;
59147;SDS011;44930;52.878;6.168;2023-01-29T07:40:50;29.10;;;21.05;;
59147;SDS011;44930;52.878;6.168;2023-01-29T07:43:16;28.88;;;19.67;;
59147;SDS011;44930;52.878;6.168;2023-01-29T07:45:42;32.72;;;22.05;;
59147;SDS011;44930;52.878;6.168;2023-01-29T07:48:09;31.23;;;22.42;;
59147;SDS011;44930;52.878;6.168;2023-01-29T07:50:36;30.52;;;22.67;;
59147;SDS011;44930;52.878;6.168;2023-01-29T07:53:03;27.58;;;20.70;;
59147;SDS011;44930;52.878;6.168;2023-01-29T07:55:29;37.78;;;23.67;;
59147;SDS011;44930;52.878;6.168;2023-01-29T07:57:55;31.65;;;20.05;;
59147;SDS011;44930;52.878;6.168;2023-01-29T08:00:21;32.10;;;22.10;;
59147;SDS011;44930;52.878;6.168;2023-01-29T08:02:47;34.60;;;23.48;;
59147;SDS011;44930;52.878;6.168;2023-01-29T08:05:12;32.50;;;22.90;;
59147;SDS011;44930;52.878;6.168;2023-01-29T08:07:38;32.13;;;21.80;;
59147;SDS011;44930;52.878;6.168;2023-01-29T08:10:04;30.10;;;21.75;;
59147;SDS011;44930;52.878;6.168;2023-01-29T08:12:30;29.77;;;20.05;;
59147;SDS011;44930;52.878;6.168;2023-01-29T08:14:55;31.17;;;21.70;;
59147;SDS011;44930;52.878;6.168;2023-01-29T08:17:21;31.50;;;22.20;;
59147;SDS011;44930;52.878;6.168;2023-01-29T08:19:46;33.20;;;20.88;;
59147;SDS011;44930;52.878;6.168;2023-01-29T08:22:12;35.90;;;22.08;;
59147;SDS011;44930;52.878;6.168;2023-01-29T08:24:39;34.25;;;23.65;;
59147;SDS011;44930;52.878;6.168;2023-01-29T08:27:05;30.02;;;21.48;;
59147;SDS011;44930;52.878;6.168;2023-01-29T08:29:31;35.85;;;24.17;;
59147;SDS011;44930;52.878;6.168;2023-01-29T08:31:56;35.85;;;23.05;;
59147;SDS011;44930;52.878;6.168;2023-01-29T08:34:22;33.85;;;22.15;;
59147;SDS011;44930;52.878;6.168;2023-01-29T08:36:48;34.88;;;23.00;;
59147;SDS011;44930;52.878;6.168;2023-01-29T08:39:13;36.92;;;22.67;;
59147;SDS011;44930;52.878;6.168;2023-01-29T08:41:39;35.80;;;22.90;;
59147;SDS011;44930;52.878;6.168;2023-01-29T08:44:05;32.25;;;22.85;;
59147;SDS011;44930;52.878;6.168;2023-01-29T08:46:31;35.67;;;23.05;;
59147;SDS011;44930;52.878;6.168;2023-01-29T08:48:56;32.83;;;22.65;;
59147;SDS011;44930;52.878;6.168;2023-01-29T08:51:23;42.33;;;25.85;;
59147;SDS011;44930;52.878;6.168;2023-01-29T08:53:49;37.80;;;23.00;;
59147;SDS011;44930;52.878;6.168;2023-01-29T08:56:15;34.75;;;23.48;;
59147;SDS011;44930;52.878;6.168;2023-01-29T08:58:40;37.53;;;22.45;;
59147;SDS011;44930;52.878;6.168;2023-01-29T09:01:07;39.92;;;25.25;;
59147;SDS011;44930;52.878;6.168;2023-01-29T09:03:34;34.15;;;22.70;;
59147;SDS011;44930;52.878;6.168;2023-01-29T09:06:00;39.45;;;24.35;;
59147;SDS011;44930;52.878;6.168;2023-01-29T09:08:26;38.42;;;24.05;;
59147;SDS011;44930;52.878;6.168;2023-01-29T09:10:52;39.20;;;24.77;;
59147;SDS011;44930;52.878;6.168;2023-01-29T09:13:18;33.33;;;22.42;;
59147;SDS011;44930;52.878;6.168;2023-01-29T09:15:43;36.20;;;22.20;;
59147;SDS011;44930;52.878;6.168;2023-01-29T09:18:09;36.13;;;23.23;;
59147;SDS011;44930;52.878;6.168;2023-01-29T09:20:34;33.92;;;22.75;;
59147;SDS011;44930;52.878;6.168;2023-01-29T09:23:03;37.80;;;24.52;;
59147;SDS011;44930;52.878;6.168;2023-01-29T09:25:32;34.90;;;22.90;;
59147;SDS011;44930;52.878;6.168;2023-01-29T09:27:58;36.03;;;23.60;;
59147;SDS011;44930;52.878;6.168;2023-01-29T09:30:24;35.33;;;23.23;;
59147;SDS011;44930;52.878;6.168;2023-01-29T09:32:49;34.72;;;22.20;;
59147;SDS011;44930;52.878;6.168;2023-01-29T09:35:15;39.72;;;24.50;;
59147;SDS011;44930;52.878;6.168;2023-01-29T09:37:41;45.90;;;25.05;;
59147;SDS011;44930;52.878;6.168;2023-01-29T09:40:06;36.90;;;21.70;;
59147;SDS011;44930;52.878;6.168;2023-01-29T09:42:45;40.90;;;22.45;;
59147;SDS011;44930;52.878;6.168;2023-01-29T09:45:22;43.70;;;23.13;;
59147;SDS011;44930;52.878;6.168;2023-01-29T09:47:49;37.78;;;23.92;;
59147;SDS011;44930;52.878;6.168;2023-01-29T09:53:09;37.33;;;24.17;;
59147;SDS011;44930;52.878;6.168;2023-01-29T09:55:40;41.67;;;24.95;;
59147;SDS011;44930;52.878;6.168;2023-01-29T09:58:26;37.90;;;24.85;;
59147;SDS011;44930;52.878;6.168;2023-01-29T10:12:17;27.25;;;15.52;;
59147;SDS011;44930;52.878;6.168;2023-01-29T10:23:32;40.30;;;22.92;;
59147;SDS011;44930;52.878;6.168;2023-01-29T10:26:00;40.88;;;24.60;;
59147;SDS011;44930;52.878;6.168;2023-01-29T10:28:33;38.38;;;23.77;;
59147;SDS011;44930;52.878;6.168;2023-01-29T10:31:02;36.85;;;22.80;;
59147;SDS011;44930;52.878;6.168;2023-01-29T10:33:35;37.20;;;23.25;;
59147;SDS011;44930;52.878;6.168;2023-01-29T10:36:07;37.90;;;23.67;;
59147;SDS011;44930;52.878;6.168;2023-01-29T10:38:39;38.88;;;23.25;;
59147;SDS011;44930;52.878;6.168;2023-01-29T10:46:28;49.80;;;25.77;;
59147;SDS011;44930;52.878;6.168;2023-01-29T10:52:14;33.25;;;23.33;;
59147;SDS011;44930;52.878;6.168;2023-01-29T11:00:18;37.72;;;23.77;;
59147;SDS011;44930;52.878;6.168;2023-01-29T11:02:48;36.97;;;23.83;;
59147;SDS011;44930;52.878;6.168;2023-01-29T11:05:57;38.50;;;23.92;;
59147;SDS011;44930;52.878;6.168;2023-01-29T11:08:10;34.92;;;23.23;;
59147;SDS011;44930;52.878;6.168;2023-01-29T11:10:53;40.53;;;24.27;;
59147;SDS011;44930;52.878;6.168;2023-01-29T11:13:19;32.95;;;22.05;;
59147;SDS011;44930;52.878;6.168;2023-01-29T11:15:50;36.15;;;24.08;;
59147;SDS011;44930;52.878;6.168;2023-01-29T11:18:16;41.92;;;22.20;;
59147;SDS011;44930;52.878;6.168;2023-01-29T11:20:42;36.67;;;22.42;;
59147;SDS011;44930;52.878;6.168;2023-01-29T11:26:04;34.50;;;21.45;;
59147;SDS011;44930;52.878;6.168;2023-01-29T11:28:37;32.70;;;20.80;;
59147;SDS011;44930;52.878;6.168;2023-01-29T11:33:46;36.03;;;23.13;;
59147;SDS011;44930;52.878;6.168;2023-01-29T11:36:30;39.33;;;23.50;;
59147;SDS011;44930;52.878;6.168;2023-01-29T11:39:19;33.03;;;23.38;;
59147;SDS011;44930;52.878;6.168;2023-01-29T11:41:52;34.35;;;20.80;;
59147;SDS011;44930;52.878;6.168;2023-01-29T11:46:53;39.03;;;23.20;;
59147;SDS011;44930;52.878;6.168;2023-01-29T11:49:28;31.40;;;21.75;;
59147;SDS011;44930;52.878;6.168;2023-01-29T11:52:02;31.02;;;21.42;;
59147;SDS011;44930;52.878;6.168;2023-01-29T11:54:42;35.15;;;23.27;;
59147;SDS011;44930;52.878;6.168;2023-01-29T11:59:50;35.45;;;23.73;;
59147;SDS011;44930;52.878;6.168;2023-01-29T12:04:47;35.03;;;23.15;;
59147;SDS011;44930;52.878;6.168;2023-01-29T12:07:13;32.90;;;22.42;;
59147;SDS011;44930;52.878;6.168;2023-01-29T12:09:47;33.97;;;22.65;;
59147;SDS011;44930;52.878;6.168;2023-01-29T12:15:01;35.00;;;22.77;;
59147;SDS011;44930;52.878;6.168;2023-01-29T12:17:27;33.40;;;20.15;;
59147;SDS011;44930;52.878;6.168;2023-01-29T12:20:02;34.85;;;23.17;;
59147;SDS011;44930;52.878;6.168;2023-01-29T12:22:48;34.85;;;22.90;;
59147;SDS011;44930;52.878;6.168;2023-01-29T12:25:40;32.05;;;21.52;;
59147;SDS011;44930;52.878;6.168;2023-01-29T12:31:20;39.22;;;23.42;;
59147;SDS011;44930;52.878;6.168;2023-01-29T12:36:40;36.38;;;23.27;;
59147;SDS011;44930;52.878;6.168;2023-01-29T12:39:16;36.78;;;23.67;;
59147;SDS011;44930;52.878;6.168;2023-01-29T12:42:00;35.22;;;23.33;;
59147;SDS011;44930;52.878;6.168;2023-01-29T12:44:35;39.03;;;25.83;;
59147;SDS011;44930;52.878;6.168;2023-01-29T12:47:24;38.95;;;22.95;;
59147;SDS011;44930;52.878;6.168;2023-01-29T12:49:56;34.97;;;24.33;;
59147;SDS011;44930;52.878;6.168;2023-01-29T12:52:38;40.03;;;23.80;;
59147;SDS011;44930;52.878;6.168;2023-01-29T12:55:10;41.10;;;24.85;;
59147;SDS011;44930;52.878;6.168;2023-01-29T13:03:07;41.90;;;26.15;;
59147;SDS011;44930;52.878;6.168;2023-01-29T13:11:02;39.20;;;26.25;;
59147;SDS011;44930;52.878;6.168;2023-01-29T13:16:01;38.17;;;24.52;;
59147;SDS011;44930;52.878;6.168;2023-01-29T13:18:40;40.40;;;25.17;;
59147;SDS011;44930;52.878;6.168;2023-01-29T13:21:28;38.63;;;27.67;;
59147;SDS011;44930;52.878;6.168;2023-01-29T13:24:03;42.97;;;25.20;;
59147;SDS011;44930;52.878;6.168;2023-01-29T13:26:36;39.78;;;25.77;;
59147;SDS011;44930;52.878;6.168;2023-01-29T13:29:03;42.05;;;24.73;;
59147;SDS011;44930;52.878;6.168;2023-01-29T13:37:40;36.15;;;24.00;;
59147;SDS011;44930;52.878;6.168;2023-01-29T13:39:52;40.08;;;24.48;;
59147;SDS011;44930;52.878;6.168;2023-01-29T13:42:20;39.00;;;25.55;;
59147;SDS011;44930;52.878;6.168;2023-01-29T13:44:47;46.65;;;26.55;;
59147;SDS011;44930;52.878;6.168;2023-01-29T13:47:23;37.78;;;24.05;;
59147;SDS011;44930;52.878;6.168;2023-01-29T13:49:53;38.38;;;25.00;;
59147;SDS011;44930;52.878;6.168;2023-01-29T13:57:33;43.85;;;27.58;;
59147;SDS011;44930;52.878;6.168;2023-01-29T14:00:46;38.70;;;26.00;;
59147;SDS011;44930;52.878;6.168;2023-01-29T14:07:53;42.15;;;27.25;;
59147;SDS011;44930;52.878;6.168;2023-01-29T14:10:20;44.90;;;28.63;;
59147;SDS011;44930;52.878;6.168;2023-01-29T14:13:33;41.50;;;26.90;;
59147;SDS011;44930;52.878;6.168;2023-01-29T14:15:33;44.47;;;27.45;;
59147;SDS011;44930;52.878;6.168;2023-01-29T14:18:04;43.00;;;26.95;;
59147;SDS011;44930;52.878;6.168;2023-01-29T14:26:21;46.03;;;29.02;;
59147;SDS011;44930;52.878;6.168;2023-01-29T14:29:04;43.30;;;25.20;;
59147;SDS011;44930;52.878;6.168;2023-01-29T14:31:40;41.40;;;27.05;;
59147;SDS011;44930;52.878;6.168;2023-01-29T14:36:42;43.08;;;28.00;;
59147;SDS011;44930;52.878;6.168;2023-01-29T14:39:19;47.25;;;27.77;;
59147;SDS011;44930;52.878;6.168;2023-01-29T14:41:49;41.83;;;28.00;;
59147;SDS011;44930;52.878;6.168;2023-01-29T14:47:21;46.85;;;29.10;;
59147;SDS011;44930;52.878;6.168;2023-01-29T14:50:37;44.10;;;27.77;;
59147;SDS011;44930;52.878;6.168;2023-01-29T14:53:16;44.35;;;28.67;;
59147;SDS011;44930;52.878;6.168;2023-01-29T14:55:49;34.78;;;21.65;;
59147;SDS011;44930;52.878;6.168;2023-01-29T15:00:49;44.50;;;28.40;;
59147;SDS011;44930;52.878;6.168;2023-01-29T15:03:19;42.20;;;27.33;;
59147;SDS011;44930;52.878;6.168;2023-01-29T15:05:53;47.40;;;28.90;;
59147;SDS011;44930;52.878;6.168;2023-01-29T15:08:21;47.05;;;31.38;;
59147;SDS011;44930;52.878;6.168;2023-01-29T15:10:52;44.22;;;29.10;;
59147;SDS011;44930;52.878;6.168;2023-01-29T15:13:43;48.10;;;29.50;;
59147;SDS011;44930;52.878;6.168;2023-01-29T15:16:39;49.90;;;30.52;;
59147;SDS011;44930;52.878;6.168;2023-01-29T15:19:10;54.13;;;32.75;;
59147;SDS011;44930;52.878;6.168;2023-01-29T15:22:02;52.10;;;31.48;;
59147;SDS011;44930;52.878;6.168;2023-01-29T15:24:29;49.03;;;31.45;;
59147;SDS011;44930;52.878;6.168;2023-01-29T15:26:54;48.05;;;30.33;;
59147;SDS011;44930;52.878;6.168;2023-01-29T15:29:22;46.78;;;28.23;;
59147;SDS011;44930;52.878;6.168;2023-01-29T15:31:49;55.90;;;32.42;;
59147;SDS011;44930;52.878;6.168;2023-01-29T15:34:15;52.17;;;31.42;;
59147;SDS011;44930;52.878;6.168;2023-01-29T15:36:41;50.03;;;32.38;;
59147;SDS011;44930;52.878;6.168;2023-01-29T15:41:36;57.90;;;33.08;;
59147;SDS011;44930;52.878;6.168;2023-01-29T15:44:02;52.65;;;32.03;;
59147;SDS011;44930;52.878;6.168;2023-01-29T15:46:28;53.22;;;32.38;;
59147;SDS011;44930;52.878;6.168;2023-01-29T15:48:59;54.25;;;32.03;;
59147;SDS011;44930;52.878;6.168;2023-01-29T15:51:30;46.15;;;29.02;;
59147;SDS011;44930;52.878;6.168;2023-01-29T15:54:02;57.30;;;31.77;;
59147;SDS011;44930;52.878;6.168;2023-01-29T15:56:32;52.35;;;29.50;;
59147;SDS011;44930;52.878;6.168;2023-01-29T15:59:05;53.60;;;32.08;;
59147;SDS011;44930;52.878;6.168;2023-01-29T16:01:32;51.67;;;33.05;;
59147;SDS011;44930;52.878;6.168;2023-01-29T16:03:58;54.42;;;29.80;;
59147;SDS011;44930;52.878;6.168;2023-01-29T16:06:35;48.83;;;28.80;;
59147;SDS011;44930;52.878;6.168;2023-01-29T16:09:04;50.75;;;30.70;;
59147;SDS011;44930;52.878;6.168;2023-01-29T16:11:30;50.60;;;31.05;;
59147;SDS011;44930;52.878;6.168;2023-01-29T16:13:56;53.10;;;31.30;;
59147;SDS011;44930;52.878;6.168;2023-01-29T16:16:23;52.17;;;31.67;;
59147;SDS011;44930;52.878;6.168;2023-01-29T16:18:50;47.90;;;31.52;;
59147;SDS011;44930;52.878;6.168;2023-01-29T16:23:49;48.25;;;28.67;;
59147;SDS011;44930;52.878;6.168;2023-01-29T16:26:23;49.53;;;31.42;;
59147;SDS011;44930;52.878;6.168;2023-01-29T16:28:52;49.97;;;31.27;;
59147;SDS011;44930;52.878;6.168;2023-01-29T16:31:22;53.08;;;30.85;;
59147;SDS011;44930;52.878;6.168;2023-01-29T16:33:52;50.75;;;31.58;;
59147;SDS011;44930;52.878;6.168;2023-01-29T16:36:21;55.47;;;32.25;;
59147;SDS011;44930;52.878;6.168;2023-01-29T16:38:48;51.55;;;29.90;;
59147;SDS011;44930;52.878;6.168;2023-01-29T16:43:47;46.90;;;30.33;;
59147;SDS011;44930;52.878;6.168;2023-01-29T16:46:23;47.30;;;28.13;;
59147;SDS011;44930;52.878;6.168;2023-01-29T16:48:59;47.30;;;26.23;;
59147;SDS011;44930;52.878;6.168;2023-01-29T16:51:29;52.85;;;30.45;;
59147;SDS011;44930;52.878;6.168;2023-01-29T16:54:06;50.75;;;30.50;;
59147;SDS011;44930;52.878;6.168;2023-01-29T16:56:36;46.45;;;29.90;;
59147;SDS011;44930;52.878;6.168;2023-01-29T16:59:03;45.55;;;28.10;;
59147;SDS011;44930;52.878;6.168;2023-01-29T17:01:30;44.45;;;28.17;;
59147;SDS011;44930;52.878;6.168;2023-01-29T17:04:00;42.92;;;27.88;;
59147;SDS011;44930;52.878;6.168;2023-01-29T17:06:34;38.97;;;26.90;;
59147;SDS011;44930;52.878;6.168;2023-01-29T17:09:00;41.45;;;27.30;;
59147;SDS011;44930;52.878;6.168;2023-01-29T17:11:37;42.90;;;25.70;;
59147;SDS011;44930;52.878;6.168;2023-01-29T17:14:06;39.38;;;25.75;;
59147;SDS011;44930;52.878;6.168;2023-01-29T17:16:34;42.78;;;26.92;;
59147;SDS011;44930;52.878;6.168;2023-01-29T17:19:00;39.55;;;25.33;;